Aviation Digital Data Service (ADDS)

Output produced by METARs form (1158 UTC 23 June 2021)
found at http://www.aviationweather.gov/metar/data/
 
METAR text: EDDL 231150Z 02007KT 340V080 9999 FEW020 BKN027 18/12 Q1020 NOSIG
Conditions at: EDDL (DUESSELDORF , DE) observed 1150 UTC 23 June 2021
Temperature: 18.0°C (64°F)
Dewpoint: 12.0°C (54°F) [RH = 68%]
Pressure (altimeter): 30.12 inches Hg (1020.0 mb)
Winds: from the NNE (20 degrees) at 8 MPH (7 knots; 3.6 m/s)
Visibility: 6 or more miles (10+ km)
Ceiling: 2700 feet AGL
Clouds: few clouds at 2000 feet AGL
broken clouds at 2700 feet AGL
Weather: no significant weather observed at this time

Forecast for: EDDL (DUESSELDORF , DE)
Text: TAF EDDL 231100Z 2312/2418 36007KT 9999 BKN030
Forecast period: 1200 UTC 23 June 2021 to 1800 UTC 24 June 2021
Forecast type: FROM: standard forecast or significant change
Winds: from the N (360 degrees) at 8 MPH (7 knots; 3.6 m/s)
Visibility: 6 or more miles (10+ km)
Ceiling: 3000 feet AGL
Clouds: broken clouds at 3000 feet AGL
Weather: no significant weather forecast for this period
Text: PROB30
Forecast period: 0400 to 0900 UTC 24 June 2021
Forecast type: TEMPORARY: The following changes expected for less than half the time period
Visibility: missing
Ceiling: 1200 feet AGL
Clouds: broken clouds at 1200 feet AGL
Weather: no significant weather forecast for this period